Time;durP1;ratioP1;P1;durP2;ratioP2;P2;SDS_P1;SDS_P2;PMS_P1;PMS_P2;Temp;Humidity;BMP_temperature;BMP_pressure;BME280_temperature;BME280_humidity;BME280_pressure;Samples;Min_cycle;Max_cycle;Signal;HPM_P1;HPM_P2
2024/03/22 00:00:05;;;;;;;;;;;;;;;20.17;33.20;99045.41;68283;1283;1015900;-62
2024/03/22 00:03:08;;;;;;;;;;;;;;;20.24;32.89;99044.05;68287;1283;1014476;-62
2024/03/22 00:06:11;;;;;;;;;;;;;;;20.07;33.30;99046.17;68294;1283;1014421;-62
2024/03/22 00:09:13;;;;;;;;;;;;;;;20.03;33.39;99043.17;68288;1283;1015821;-66
2024/03/22 00:12:15;;;;;;;;;;;;;;;20.06;33.42;99037.75;68278;1283;1015742;-62
2024/03/22 00:15:18;;;;;;;;;;;;;;;20.16;33.51;99030.91;68272;1283;1016014;-62
2024/03/22 00:18:20;;;;;;;;;;;;;;;20.15;33.33;99026.27;68292;1283;1016098;-62
2024/03/22 00:21:23;;;;;;;;;;;;;;;20.01;33.51;99025.27;68288;1283;1015281;-62
2024/03/22 00:24:25;;;;;;;;;;;;;;;20.10;33.56;99023.17;68297;1283;1016126;-62
2024/03/22 00:27:28;;;;;;;;;;;;;;;20.23;33.27;99023.85;68289;1283;1015392;-63
2024/03/22 00:30:30;;;;;;;;;;;;;;;20.01;33.50;99021.95;68281;1283;1015317;-62
2024/03/22 00:33:33;;;;;;;;;;;;;;;19.89;33.61;99019.30;68292;1283;1015866;-68
2024/03/22 00:36:35;;;;;;;;;;;;;;;19.85;33.71;99026.14;68285;1283;1015767;-65
2024/03/22 00:39:37;;;;;;;;;;;;;;;19.97;33.45;99023.96;68298;1283;1015834;-69
2024/03/22 00:42:40;;;;;;;;;;;;;;;20.16;33.26;99023.69;68278;1283;1015933;-62
2024/03/22 00:45:42;;;;;;;;;;;;;;;20.30;33.18;99027.67;68287;1283;1014429;-63
2024/03/22 00:48:45;;;;;;;;;;;;;;;20.36;33.15;99028.84;68277;1283;1016090;-62
2024/03/22 00:51:48;;;;;;;;;;;;;;;20.46;33.13;99037.95;68279;1283;1015637;-62
2024/03/22 00:54:50;;;;;;;;;;;;;;;20.40;33.60;99028.48;68297;1283;1015169;-69
2024/03/22 00:57:53;;;;;;;;;;;;;;;20.14;34.10;99023.84;68291;1283;1016090;-65
2024/03/22 01:00:56;;;;;;;;;;;;;;;20.27;33.39;99022.59;68291;1283;1016147;-63
2024/03/22 01:04:01;;;;;;;;;;;;;;;20.26;33.70;99020.58;68275;1283;1015720;-68
2024/03/22 01:07:06;;;;;;;;;;;;;;;20.38;33.44;99023.33;68281;1283;1015993;-62
2024/03/22 01:10:11;;;;;;;;;;;;;;;20.45;33.16;99022.98;68275;1283;1016146;-62
2024/03/22 01:13:16;;;;;;;;;;;;;;;20.25;33.38;99022.63;68282;1283;1015309;-62
2024/03/22 01:16:20;;;;;;;;;;;;;;;20.16;33.53;99019.11;68289;1283;1016656;-62
2024/03/22 01:19:24;;;;;;;;;;;;;;;20.22;33.79;99018.51;68289;1283;1015365;-62
2024/03/22 01:22:29;;;;;;;;;;;;;;;20.35;33.61;99019.36;68281;1283;1015734;-69
2024/03/22 01:25:34;;;;;;;;;;;;;;;20.52;33.40;99014.86;68294;1283;1015693;-62
2024/03/22 01:28:39;;;;;;;;;;;;;;;20.55;33.38;99016.42;68286;1283;1016699;-62
2024/03/22 01:31:43;;;;;;;;;;;;;;;20.59;33.37;99014.69;68284;1283;1015671;-62
2024/03/22 01:34:48;;;;;;;;;;;;;;;20.63;33.52;99020.13;68283;1283;1016325;-63
2024/03/22 01:37:52;;;;;;;;;;;;;;;20.54;33.93;99018.31;68284;1283;1015677;-63
2024/03/22 01:40:58;;;;;;;;;;;;;;;20.57;33.76;99021.45;68268;1283;1015486;-65
2024/03/22 01:44:02;;;;;;;;;;;;;;;20.49;34.18;99026.17;68281;1283;1016613;-66
2024/03/22 01:47:06;;;;;;;;;;;;;;;20.56;34.24;99026.81;68284;1283;1016197;-62
2024/03/22 01:50:11;;;;;;;;;;;;;;;20.69;34.06;99014.30;68281;1283;1016264;-62
2024/03/22 01:53:17;;;;;;;;;;;;;;;20.44;34.44;99016.02;68287;1283;1015818;-62
2024/03/22 01:56:21;;;;;;;;;;;;;;;20.23;34.78;99013.90;68288;1283;1015760;-62
2024/03/22 01:59:25;;;;;;;;;;;;;;;20.39;34.58;99012.91;68286;1283;1015296;-63
2024/03/22 02:02:29;;;;;;;;;;;;;;;20.40;34.54;99014.29;68272;1283;1016036;-62
2024/03/22 02:05:34;;;;;;;;;;;;;;;20.19;34.86;99011.98;68284;1283;1016704;-62
2024/03/22 02:08:40;;;;;;;;;;;;;;;20.23;34.98;99016.75;68278;1283;1015818;-62
2024/03/22 02:11:44;;;;;;;;;;;;;;;20.24;35.24;99017.05;68289;1283;1015362;-62
2024/03/22 02:14:48;;;;;;;;;;;;;;;20.04;35.77;99014.86;68286;1283;1015953;-62
2024/03/22 02:17:51;;;;;;;;;;;;;;;19.95;36.46;99013.15;68296;1283;1015263;-63
2024/03/22 02:20:55;;;;;;;;;;;;;;;19.65;37.33;99015.05;68283;1283;1016133;-62
2024/03/22 02:24:00;;;;;;;;;;;;;;;19.40;38.29;99015.66;68280;1283;1016234;-62
2024/03/22 02:27:03;;;;;;;;;;;;;;;19.30;38.58;99015.20;68284;1283;1015887;-63
2024/03/22 02:30:08;;;;;;;;;;;;;;;19.27;39.75;99015.16;68288;1283;1016045;-62
2024/03/22 02:33:13;;;;;;;;;;;;;;;19.20;40.26;99011.91;68280;1283;1015856;-63
2024/03/22 02:36:18;;;;;;;;;;;;;;;19.20;40.54;99011.17;68288;1283;1015816;-63
2024/03/22 02:39:21;;;;;;;;;;;;;;;19.14;41.26;99007.33;68296;1283;1015416;-63
2024/03/22 02:42:26;;;;;;;;;;;;;;;19.15;41.15;99006.85;68288;1283;1016277;-62
2024/03/22 02:45:31;;;;;;;;;;;;;;;19.15;41.58;99007.01;68289;1283;1014455;-66
2024/03/22 02:48:36;;;;;;;;;;;;;;;19.14;42.16;99009.52;68293;1283;1014636;-69
2024/03/22 02:51:40;;;;;;;;;;;;;;;19.09;42.08;99006.14;68284;1283;1015836;-62
2024/03/22 02:54:45;;;;;;;;;;;;;;;19.08;42.03;99003.98;68285;1283;1015383;-62
2024/03/22 02:57:49;;;;;;;;;;;;;;;19.08;42.16;99002.70;68305;1283;1016165;-62
2024/03/22 03:00:52;;;;;;;;;;;;;;;18.96;42.78;99007.68;68286;1283;1015419;-63
2024/03/22 03:03:58;;;;;;;;;;;;;;;18.94;43.08;99006.14;68289;1283;1015532;-62
2024/03/22 03:07:03;;;;;;;;;;;;;;;19.10;42.85;98999.81;68288;1283;1016175;-62
2024/03/22 03:10:08;;;;;;;;;;;;;;;18.95;43.66;99005.50;68288;1283;1015371;-62
2024/03/22 03:13:14;;;;;;;;;;;;;;;18.84;43.93;99005.05;68300;1283;1016425;-62
2024/03/22 03:16:19;;;;;;;;;;;;;;;18.80;44.74;99007.73;68287;1283;1015750;-62
2024/03/22 03:19:24;;;;;;;;;;;;;;;18.91;43.92;99008.21;68291;1283;1015660;-62
2024/03/22 03:22:29;;;;;;;;;;;;;;;18.93;44.25;99007.09;68292;1283;1015900;-68
2024/03/22 03:25:35;;;;;;;;;;;;;;;18.98;44.37;99010.39;68292;1283;1015721;-62
2024/03/22 03:28:39;;;;;;;;;;;;;;;19.09;44.09;99005.50;68293;1283;1017692;-62
2024/03/22 03:31:44;;;;;;;;;;;;;;;19.07;44.27;99006.20;68294;1283;1015338;-62
2024/03/22 03:34:48;;;;;;;;;;;;;;;19.09;43.86;99005.45;68284;1283;1015521;-63
2024/03/22 03:37:52;;;;;;;;;;;;;;;19.12;43.99;99002.67;68289;1283;1015150;-68
2024/03/22 03:40:58;;;;;;;;;;;;;;;19.19;44.41;99000.99;68288;1283;1015804;-63
2024/03/22 03:44:03;;;;;;;;;;;;;;;19.19;43.99;99003.98;68289;1283;1016007;-63
2024/03/22 03:47:08;;;;;;;;;;;;;;;19.28;44.21;99008.40;68276;1283;1015834;-63
2024/03/22 03:50:14;;;;;;;;;;;;;;;19.34;44.07;99004.73;68304;1283;1016297;-63
2024/03/22 03:53:17;;;;;;;;;;;;;;;19.30;44.50;99005.44;68290;1283;1015540;-62
2024/03/22 03:56:21;;;;;;;;;;;;;;;19.32;44.12;99000.05;68290;1283;1015479;-66
2024/03/22 03:59:26;;;;;;;;;;;;;;;19.42;44.52;99000.07;68293;1283;1016346;-67
2024/03/22 04:02:31;;;;;;;;;;;;;;;19.45;44.23;98998.46;68293;1283;1015612;-67
2024/03/22 04:05:35;;;;;;;;;;;;;;;19.32;44.37;98990.84;68294;1283;1016496;-66
2024/03/22 04:08:41;;;;;;;;;;;;;;;19.48;44.19;98992.89;68285;1283;1015927;-63
2024/03/22 04:11:47;;;;;;;;;;;;;;;19.52;44.00;98989.73;68292;1283;1015595;-62
2024/03/22 04:14:51;;;;;;;;;;;;;;;19.49;44.18;98983.81;68291;1283;1015620;-62
2024/03/22 04:17:55;;;;;;;;;;;;;;;19.63;44.08;98988.17;68275;1283;1015233;-62
2024/03/22 04:21:01;;;;;;;;;;;;;;;19.66;44.05;98992.10;68289;1283;1016246;-62
2024/03/22 04:24:06;;;;;;;;;;;;;;;19.56;44.54;98989.84;68304;1283;1015593;-68
2024/03/22 04:27:10;;;;;;;;;;;;;;;19.48;44.80;98987.80;68302;1283;1015380;-68
2024/03/22 04:30:14;;;;;;;;;;;;;;;19.53;44.15;98991.02;68289;1283;1015562;-68
2024/03/22 04:33:16;;;;;;;;;;;;;;;19.56;44.14;98994.45;68287;1283;1015565;-62
2024/03/22 04:36:22;;;;;;;;;;;;;;;19.65;44.14;98999.98;68304;1283;1015373;-67
2024/03/22 04:39:26;;;;;;;;;;;;;;;19.51;44.50;99005.08;68287;1283;1015566;-66
2024/03/22 04:42:31;;;;;;;;;;;;;;;19.62;44.16;99009.32;68296;1283;1015922;-63
2024/03/22 04:45:35;;;;;;;;;;;;;;;19.62;44.27;99013.35;68292;1283;1015938;-62
2024/03/22 04:48:40;;;;;;;;;;;;;;;19.55;44.79;99005.59;68297;1283;1016241;-62
2024/03/22 04:51:44;;;;;;;;;;;;;;;19.47;44.92;99001.85;68290;1283;1016072;-62
2024/03/22 04:54:49;;;;;;;;;;;;;;;19.68;44.36;98996.11;68292;1283;1016884;-68
2024/03/22 04:57:54;;;;;;;;;;;;;;;19.69;44.35;98995.69;68295;1283;1016209;-62
2024/03/22 05:00:59;;;;;;;;;;;;;;;19.77;44.41;98998.49;68289;1283;1015717;-62
2024/03/22 05:04:04;;;;;;;;;;;;;;;19.95;43.56;98998.45;68293;1283;1015920;-62
2024/03/22 05:07:08;;;;;;;;;;;;;;;19.97;43.51;98995.55;68293;1283;1015388;-62
2024/03/22 05:10:13;;;;;;;;;;;;;;;20.01;43.56;98999.08;68291;1283;1015384;-67
2024/03/22 05:13:18;;;;;;;;;;;;;;;20.00;43.52;98999.81;68302;1283;1015728;-62
2024/03/22 05:16:23;;;;;;;;;;;;;;;20.01;43.52;99000.61;68298;1283;1015528;-63
2024/03/22 05:19:29;;;;;;;;;;;;;;;19.94;43.82;99001.14;68283;1283;1016054;-63
2024/03/22 05:22:33;;;;;;;;;;;;;;;20.01;43.60;98998.83;68304;1283;1015627;-68
2024/03/22 05:25:38;;;;;;;;;;;;;;;20.00;43.81;98996.34;65703;1282;5409536;-67
2024/03/22 05:28:43;;;;;;;;;;;;;;;19.99;43.93;99000.27;68310;1282;1015548;-69
2024/03/22 05:31:50;;;;;;;;;;;;;;;19.96;43.89;99003.92;68282;1283;1015437;-67
2024/03/22 05:34:53;;;;;;;;;;;;;;;20.01;44.00;99003.01;68292;1283;1015555;-62
2024/03/22 05:37:57;;;;;;;;;;;;;;;20.14;43.69;99001.15;68293;1283;1015680;-69
2024/03/22 05:41:02;;;;;;;;;;;;;;;20.07;43.94;99006.59;68294;1283;1014754;-63
2024/03/22 05:44:06;;;;;;;;;;;;;;;20.03;44.21;99008.42;68287;1283;1015569;-69
2024/03/22 05:47:11;;;;;;;;;;;;;;;19.96;44.37;99011.63;68274;1283;1015878;-62
2024/03/22 05:50:17;;;;;;;;;;;;;;;20.08;44.27;99010.05;68293;1283;1016224;-64
2024/03/22 05:53:22;;;;;;;;;;;;;;;20.14;44.10;99013.23;68298;1283;1015294;-63
2024/03/22 05:56:26;;;;;;;;;;;;;;;20.11;44.09;99011.92;68307;1283;1016010;-64
2024/03/22 05:59:30;;;;;;;;;;;;;;;20.18;44.00;99014.96;68284;1283;1015343;-66
2024/03/22 06:02:35;;;;;;;;;;;;;;;20.40;43.81;99018.55;68290;1283;1015871;-66
2024/03/22 06:05:40;;;;;;;;;;;;;;;20.50;43.49;99012.52;68296;1283;1015472;-66
2024/03/22 06:08:45;;;;;;;;;;;;;;;20.35;43.85;99018.23;68288;1283;1016022;-66
2024/03/22 06:11:49;;;;;;;;;;;;;;;20.28;44.12;99022.12;68296;1283;1015898;-64
2024/03/22 06:14:54;;;;;;;;;;;;;;;20.31;44.04;99015.73;68298;1283;1016200;-63
2024/03/22 06:17:58;;;;;;;;;;;;;;;20.13;44.31;99012.45;68301;1283;1014385;-63
2024/03/22 06:21:05;;;;;;;;;;;;;;;20.27;44.23;99010.13;68289;1283;1015880;-69
2024/03/22 06:24:11;;;;;;;;;;;;;;;20.54;44.21;99006.64;68308;1283;1015980;-63
2024/03/22 06:27:16;;;;;;;;;;;;;;;20.65;44.09;99010.69;68292;1283;1015748;-62
2024/03/22 06:30:21;;;;;;;;;;;;;;;20.40;44.46;99012.15;68303;1283;1015098;-68
2024/03/22 06:33:27;;;;;;;;;;;;;;;20.18;44.96;99013.36;68304;1283;1016124;-66
2024/03/22 06:36:33;;;;;;;;;;;;;;;20.22;45.01;99017.59;68294;1283;1015526;-62
2024/03/22 06:39:37;;;;;;;;;;;;;;;20.18;45.13;99013.50;68283;1283;1016013;-68
2024/03/22 06:42:42;;;;;;;;;;;;;;;20.07;45.54;99013.48;68279;1283;1016189;-68
2024/03/22 06:45:46;;;;;;;;;;;;;;;19.75;46.37;99011.08;68289;1283;1016104;-62
2024/03/22 06:48:51;;;;;;;;;;;;;;;20.14;45.42;99011.09;68298;1283;1015755;-62
2024/03/22 06:51:56;;;;;;;;;;;;;;;20.20;45.18;99017.06;68268;1283;1016105;-63
2024/03/22 06:55:01;;;;;;;;;;;;;;;20.14;45.35;99017.66;68282;1283;1015740;-68
2024/03/22 06:58:05;;;;;;;;;;;;;;;20.12;45.25;99008.64;68299;1283;1015487;-62
2024/03/22 07:01:09;;;;;;;;;;;;;;;20.14;45.26;99006.96;68302;1283;1014649;-62
2024/03/22 07:04:14;;;;;;;;;;;;;;;20.13;45.25;99002.70;68299;1283;1015030;-68
2024/03/22 07:07:17;;;;;;;;;;;;;;;20.12;45.41;99004.21;68296;1283;1015779;-62
2024/03/22 07:10:22;;;;;;;;;;;;;;;20.01;45.53;98996.97;68291;1283;1015422;-63
2024/03/22 07:13:26;;;;;;;;;;;;;;;19.98;45.72;98995.55;68297;1283;1015387;-63
2024/03/22 07:16:31;;;;;;;;;;;;;;;20.24;45.19;98993.96;68286;1283;1016325;-63
2024/03/22 07:19:37;;;;;;;;;;;;;;;20.36;44.85;98993.66;68278;1283;1015958;-63
2024/03/22 07:22:42;;;;;;;;;;;;;;;20.42;44.99;98993.27;68295;1283;1015425;-62
2024/03/22 07:25:48;;;;;;;;;;;;;;;20.28;45.14;98996.23;68273;1283;1016308;-69
2024/03/22 07:28:52;;;;;;;;;;;;;;;19.93;45.89;98994.20;68296;1283;1015749;-62
2024/03/22 07:31:56;;;;;;;;;;;;;;;19.92;46.05;98994.39;68293;1283;1015506;-63
2024/03/22 07:35:02;;;;;;;;;;;;;;;19.82;46.34;98993.98;68286;1283;1016250;-68
2024/03/22 07:38:06;;;;;;;;;;;;;;;19.75;46.24;98995.80;68286;1283;1015445;-63
2024/03/22 07:41:11;;;;;;;;;;;;;;;19.82;46.31;98999.64;68290;1283;1016149;-63
2024/03/22 07:44:17;;;;;;;;;;;;;;;19.98;46.03;98996.89;68281;1283;1015344;-62
2024/03/22 07:47:21;;;;;;;;;;;;;;;20.33;45.10;98993.73;68285;1283;1015749;-63
2024/03/22 07:50:24;;;;;;;;;;;;;;;20.41;44.63;98989.26;68285;1283;1014694;-67
2024/03/22 07:53:27;;;;;;;;;;;;;;;20.35;44.92;98988.77;68293;1283;1016526;-63
2024/03/22 07:56:32;;;;;;;;;;;;;;;20.23;44.95;98993.52;68283;1283;1015879;-63
2024/03/22 07:59:36;;;;;;;;;;;;;;;20.16;44.81;98996.34;68278;1283;1016010;-68
2024/03/22 08:02:41;;;;;;;;;;;;;;;20.12;45.13;98999.77;68282;1283;1015603;-68
2024/03/22 08:05:46;;;;;;;;;;;;;;;20.37;44.67;98998.52;68272;1283;1014334;-68
2024/03/22 08:08:52;;;;;;;;;;;;;;;20.46;44.13;99001.45;68282;1283;1015541;-68
2024/03/22 08:11:56;;;;;;;;;;;;;;;20.55;44.07;99000.00;68261;1283;1015774;-68
2024/03/22 08:15:00;;;;;;;;;;;;;;;20.62;43.54;98995.18;68277;1283;1015525;-63
2024/03/22 08:18:06;;;;;;;;;;;;;;;20.60;43.48;98998.23;68274;1283;1015430;-68
2024/03/22 08:21:11;;;;;;;;;;;;;;;20.54;43.70;98999.52;68277;1283;1015732;-63
2024/03/22 08:24:15;;;;;;;;;;;;;;;20.41;43.52;99005.30;68290;1283;1016089;-66
2024/03/22 08:27:21;;;;;;;;;;;;;;;20.30;43.90;99005.95;68294;1283;1016051;-67
2024/03/22 08:30:25;;;;;;;;;;;;;;;20.50;43.78;98998.52;68289;1283;1016003;-63
2024/03/22 08:33:29;;;;;;;;;;;;;;;20.61;43.41;98998.49;68298;1283;1015911;-63
2024/03/22 08:36:34;;;;;;;;;;;;;;;20.62;43.46;99000.70;68293;1283;1015687;-63
2024/03/22 08:39:38;;;;;;;;;;;;;;;20.42;43.60;98999.29;68295;1283;1015747;-65
2024/03/22 08:42:43;;;;;;;;;;;;;;;20.66;43.35;98996.75;68283;1283;1016371;-63
2024/03/22 08:45:47;;;;;;;;;;;;;;;20.54;43.21;99009.28;68291;1283;1016114;-68
2024/03/22 08:48:52;;;;;;;;;;;;;;;20.78;43.19;99002.02;68286;1283;1016774;-68
2024/03/22 08:51:57;;;;;;;;;;;;;;;20.80;42.67;98999.50;68295;1283;1015626;-64
2024/03/22 08:55:02;;;;;;;;;;;;;;;20.66;43.01;99007.55;68289;1283;1014946;-63
2024/03/22 08:58:07;;;;;;;;;;;;;;;20.53;43.20;99005.47;68287;1283;1015286;-63
2024/03/22 09:01:11;;;;;;;;;;;;;;;20.41;43.32;98999.52;68297;1283;1015920;-63
2024/03/22 09:04:15;;;;;;;;;;;;;;;20.52;42.81;98997.81;68277;1283;1015713;-68
2024/03/22 09:07:19;;;;;;;;;;;;;;;20.38;43.29;99000.55;68285;1283;1015876;-68
2024/03/22 09:10:24;;;;;;;;;;;;;;;20.12;43.70;98998.36;68296;1283;1015301;-63
2024/03/22 09:13:29;;;;;;;;;;;;;;;20.11;43.85;98996.83;68282;1283;1015763;-63
2024/03/22 09:16:33;;;;;;;;;;;;;;;19.95;44.37;98994.13;68296;1283;1015669;-68
2024/03/22 09:19:38;;;;;;;;;;;;;;;19.82;44.18;98996.62;68291;1283;1016329;-63
2024/03/22 09:22:42;;;;;;;;;;;;;;;20.04;43.91;98995.02;68293;1283;1015467;-64
2024/03/22 09:25:45;;;;;;;;;;;;;;;19.93;44.16;98990.46;68300;1283;1015490;-63
2024/03/22 09:28:50;;;;;;;;;;;;;;;19.85;44.18;98995.13;68296;1283;1015695;-67
2024/03/22 09:31:54;;;;;;;;;;;;;;;19.76;43.89;98991.66;68285;1283;1015596;-62
2024/03/22 09:34:58;;;;;;;;;;;;;;;19.77;43.83;98989.28;68293;1283;1015833;-67
2024/03/22 09:38:03;;;;;;;;;;;;;;;19.65;44.07;98990.56;68288;1283;1015790;-63
2024/03/22 09:41:07;;;;;;;;;;;;;;;19.70;44.03;98998.44;68283;1283;1015199;-65
2024/03/22 09:44:12;;;;;;;;;;;;;;;19.82;43.61;98994.13;68298;1283;1015372;-68
2024/03/22 09:47:15;;;;;;;;;;;;;;;18.99;45.51;98985.86;68291;1283;1015986;-69
2024/03/22 09:50:20;;;;;;;;;;;;;;;18.95;45.73;98985.16;68288;1283;1015931;-68
2024/03/22 09:53:25;;;;;;;;;;;;;;;19.31;45.25;98984.81;68290;1283;1015577;-68
2024/03/22 09:56:30;;;;;;;;;;;;;;;19.77;44.09;98981.85;68301;1283;1015978;-67
2024/03/22 09:59:34;;;;;;;;;;;;;;;19.93;43.75;98977.41;68291;1283;1015526;-68
2024/03/22 10:02:40;;;;;;;;;;;;;;;20.15;43.23;98976.25;68285;1283;1016820;-68
2024/03/22 10:05:43;;;;;;;;;;;;;;;20.15;43.12;98973.56;68285;1283;1016053;-69
2024/03/22 10:08:46;;;;;;;;;;;;;;;20.27;42.88;98963.33;68292;1283;1015889;-68
2024/03/22 10:11:51;;;;;;;;;;;;;;;20.43;42.39;98964.20;68305;1283;1015765;-68
2024/03/22 10:14:55;;;;;;;;;;;;;;;20.39;42.45;98964.84;68279;1283;1016225;-68
2024/03/22 10:18:00;;;;;;;;;;;;;;;20.40;42.39;98960.40;68285;1283;1016027;-63
2024/03/22 10:21:04;;;;;;;;;;;;;;;20.37;42.27;98961.28;68277;1283;1015365;-63
2024/03/22 10:24:09;;;;;;;;;;;;;;;20.40;42.10;98959.15;68270;1283;1016079;-63
2024/03/22 10:27:14;;;;;;;;;;;;;;;20.19;42.39;98960.94;68297;1283;1015863;-68
2024/03/22 10:30:19;;;;;;;;;;;;;;;20.23;42.54;98959.58;68283;1283;1015581;-67
2024/03/22 10:33:26;;;;;;;;;;;;;;;20.21;43.00;98958.16;68288;1283;1015456;-69
2024/03/22 10:36:30;;;;;;;;;;;;;;;20.46;42.39;98960.48;68286;1283;1016812;-68
2024/03/22 10:39:35;;;;;;;;;;;;;;;20.93;42.49;98951.94;68289;1283;1015953;-62
2024/03/22 10:42:40;;;;;;;;;;;;;;;20.99;41.08;98952.08;68294;1283;1017430;-62
2024/03/22 10:45:45;;;;;;;;;;;;;;;21.08;41.16;98950.27;68300;1283;1015730;-64
2024/03/22 10:48:50;;;;;;;;;;;;;;;20.99;40.73;98945.04;68280;1283;1015533;-68
2024/03/22 10:51:55;;;;;;;;;;;;;;;20.98;41.05;98946.63;68288;1283;1016006;-63
2024/03/22 10:55:00;;;;;;;;;;;;;;;21.24;40.93;98948.27;68280;1283;1015796;-63
2024/03/22 10:58:05;;;;;;;;;;;;;;;20.96;41.97;98941.17;68274;1283;1015675;-68
2024/03/22 11:01:10;;;;;;;;;;;;;;;21.18;41.66;98930.75;68301;1283;1015479;-63
2024/03/22 11:04:15;;;;;;;;;;;;;;;21.21;41.02;98930.94;68292;1284;1016204;-63
2024/03/22 11:07:19;;;;;;;;;;;;;;;21.42;40.89;98916.36;68290;1283;1015854;-68
2024/03/22 11:10:25;;;;;;;;;;;;;;;21.87;40.78;98910.70;68274;1284;1016155;-63
2024/03/22 11:13:31;;;;;;;;;;;;;;;22.08;40.17;98907.98;68291;1283;1016104;-66
2024/03/22 11:16:36;;;;;;;;;;;;;;;22.10;40.03;98900.92;68280;1283;1015667;-67
2024/03/22 11:19:42;;;;;;;;;;;;;;;21.96;39.42;98897.67;68283;1283;1015779;-68
2024/03/22 11:22:46;;;;;;;;;;;;;;;22.27;39.50;98898.79;68284;1283;1015955;-68
2024/03/22 11:25:50;;;;;;;;;;;;;;;22.23;38.39;98889.97;68287;1283;1015891;-63
2024/03/22 11:28:55;;;;;;;;;;;;;;;21.99;38.65;98888.48;68276;1283;1016403;-63
2024/03/22 11:32:01;;;;;;;;;;;;;;;22.08;38.71;98877.71;68293;1283;1016300;-68
2024/03/22 11:35:06;;;;;;;;;;;;;;;22.01;38.71;98878.27;68285;1283;1015852;-64
2024/03/22 11:38:11;;;;;;;;;;;;;;;22.00;38.70;98872.27;68294;1283;1015315;-65
2024/03/22 11:41:16;;;;;;;;;;;;;;;22.80;37.83;98867.50;68293;1283;1016292;-69
2024/03/22 11:44:21;;;;;;;;;;;;;;;23.07;37.89;98860.40;68280;1283;1015386;-68
2024/03/22 11:47:26;;;;;;;;;;;;;;;22.48;38.10;98857.52;68292;1283;1016529;-64
2024/03/22 11:50:29;;;;;;;;;;;;;;;22.29;37.54;98860.79;68298;1283;1015552;-63
2024/03/22 11:53:33;;;;;;;;;;;;;;;22.51;37.38;98863.43;68282;1283;1016132;-63
2024/03/22 11:56:38;;;;;;;;;;;;;;;22.44;37.39;98855.25;68301;1283;1015863;-63
2024/03/22 11:59:42;;;;;;;;;;;;;;;22.48;36.79;98853.02;68291;1283;1016136;-68
2024/03/22 12:02:45;;;;;;;;;;;;;;;22.07;37.56;98852.67;68275;1283;1015967;-68
2024/03/22 12:05:52;;;;;;;;;;;;;;;22.16;37.47;98848.27;68290;1283;1016029;-63
2024/03/22 12:08:56;;;;;;;;;;;;;;;21.89;37.94;98844.48;68291;1283;1015746;-62
2024/03/22 12:12:01;;;;;;;;;;;;;;;21.98;37.77;98846.16;68294;1283;1015791;-63
2024/03/22 12:15:06;;;;;;;;;;;;;;;22.18;36.74;98848.27;68295;1283;1015700;-64
2024/03/22 12:18:11;;;;;;;;;;;;;;;22.00;36.96;98843.62;68292;1283;1016769;-63
2024/03/22 12:21:15;;;;;;;;;;;;;;;22.59;36.36;98835.63;68270;1283;1016057;-62
2024/03/22 12:24:18;;;;;;;;;;;;;;;22.94;35.57;98828.05;68303;1283;1015936;-68
2024/03/22 12:27:23;;;;;;;;;;;;;;;23.08;35.78;98824.05;68286;1283;1015700;-68
2024/03/22 12:30:28;;;;;;;;;;;;;;;23.24;35.38;98822.86;68278;1283;1016277;-62
2024/03/22 12:33:32;;;;;;;;;;;;;;;22.64;36.13;98815.25;68287;1283;1016102;-64
2024/03/22 12:36:37;;;;;;;;;;;;;;;22.76;35.80;98806.79;68285;1283;1016184;-63
2024/03/22 12:39:42;;;;;;;;;;;;;;;22.64;35.70;98802.61;68284;1283;1016263;-68
2024/03/22 12:42:46;;;;;;;;;;;;;;;21.95;35.83;98791.52;68288;1283;1015863;-68
2024/03/22 12:45:50;;;;;;;;;;;;;;;22.06;35.71;98787.22;68297;1283;1015435;-68
2024/03/22 12:48:56;;;;;;;;;;;;;;;22.20;35.99;98785.54;68287;1283;1014879;-62
2024/03/22 12:52:01;;;;;;;;;;;;;;;22.76;35.15;98788.48;68276;1283;1015898;-68
2024/03/22 12:55:06;;;;;;;;;;;;;;;23.14;34.37;98785.16;68288;1283;1015004;-63
2024/03/22 12:58:10;;;;;;;;;;;;;;;23.18;34.30;98784.72;68289;1283;1016038;-68
2024/03/22 13:01:15;;;;;;;;;;;;;;;23.27;34.49;98771.14;68293;1283;1016323;-62
2024/03/22 13:04:20;;;;;;;;;;;;;;;22.54;35.16;98777.02;68292;1283;1015367;-62
2024/03/22 13:07:25;;;;;;;;;;;;;;;22.44;34.39;98783.09;68278;1283;1015805;-63
2024/03/22 13:10:29;;;;;;;;;;;;;;;22.08;34.95;98775.84;68286;1283;1016152;-63
2024/03/22 13:13:33;;;;;;;;;;;;;;;22.80;34.30;98768.11;68274;1283;1015553;-69
2024/03/22 13:16:38;;;;;;;;;;;;;;;22.98;33.83;98762.70;68292;1283;1016278;-63
2024/03/22 13:19:43;;;;;;;;;;;;;;;22.99;33.16;98760.94;68284;1283;1014976;-68
2024/03/22 13:22:48;;;;;;;;;;;;;;;22.79;33.21;98762.14;68288;1283;1015886;-63
2024/03/22 13:25:53;;;;;;;;;;;;;;;22.70;33.94;98762.58;68272;1283;1015319;-63
2024/03/22 13:28:58;;;;;;;;;;;;;;;22.83;33.62;98757.52;68278;1283;1015377;-68
2024/03/22 13:32:04;;;;;;;;;;;;;;;22.99;32.68;98764.02;68282;1283;1015644;-63
2024/03/22 13:35:09;;;;;;;;;;;;;;;23.18;32.97;98749.89;68288;1283;1015975;-63
2024/03/22 13:38:14;;;;;;;;;;;;;;;23.33;32.40;98755.29;68275;1283;1016205;-69
2024/03/22 13:41:19;;;;;;;;;;;;;;;23.06;32.29;98756.41;68287;1283;1016144;-62
2024/03/22 13:44:23;;;;;;;;;;;;;;;23.24;32.63;98743.84;68281;1283;1015407;-63
2024/03/22 13:47:29;;;;;;;;;;;;;;;23.26;32.56;98734.91;68290;1283;1016272;-63
2024/03/22 13:50:34;;;;;;;;;;;;;;;23.52;32.07;98734.94;68283;1283;1015821;-64
2024/03/22 13:53:38;;;;;;;;;;;;;;;23.58;32.57;98726.09;68269;1283;1016370;-63
2024/03/22 13:56:43;;;;;;;;;;;;;;;23.55;32.31;98727.80;68288;1283;1015988;-66
2024/03/22 13:59:49;;;;;;;;;;;;;;;22.95;33.25;98723.72;68282;1283;1015473;-63
2024/03/22 14:02:56;;;;;;;;;;;;;;;22.54;33.49;98719.01;68287;1283;1015957;-63
2024/03/22 14:06:00;;;;;;;;;;;;;;;22.60;33.29;98718.23;68291;1283;1015656;-66
2024/03/22 14:09:07;;;;;;;;;;;;;;;22.64;33.22;98716.52;68286;1283;1016047;-66
2024/03/22 14:12:12;;;;;;;;;;;;;;;22.40;33.30;98714.65;68280;1283;1015819;-63
2024/03/22 14:15:16;;;;;;;;;;;;;;;22.34;33.67;98716.16;68280;1283;1016500;-63
2024/03/22 14:18:19;;;;;;;;;;;;;;;22.09;33.51;98714.63;68285;1283;1015947;-63
2024/03/22 14:21:25;;;;;;;;;;;;;;;22.63;33.20;98707.20;68285;1283;1015671;-63
2024/03/22 14:24:31;;;;;;;;;;;;;;;23.12;32.92;98705.45;68295;1283;1015435;-63
2024/03/22 14:27:35;;;;;;;;;;;;;;;22.69;32.73;98707.52;68288;1283;1015970;-63
2024/03/22 14:30:40;;;;;;;;;;;;;;;22.55;32.72;98701.58;68287;1283;1014723;-68
2024/03/22 14:33:45;;;;;;;;;;;;;;;22.70;33.10;98699.65;68283;1283;1015959;-68
2024/03/22 14:36:49;;;;;;;;;;;;;;;22.78;32.54;98700.19;68282;1283;1015693;-63
2024/03/22 14:39:52;;;;;;;;;;;;;;;22.68;32.45;98710.49;68276;1283;1015866;-64
2024/03/22 14:42:58;;;;;;;;;;;;;;;22.66;32.93;98699.67;68293;1283;1015729;-63
2024/03/22 14:46:03;;;;;;;;;;;;;;;22.02;33.62;98700.60;68285;1283;1016236;-62
2024/03/22 14:49:06;;;;;;;;;;;;;;;22.45;33.77;98695.33;68283;1283;1016150;-63
2024/03/22 14:52:10;;;;;;;;;;;;;;;22.38;33.98;98691.38;68296;1283;1016060;-67
2024/03/22 14:55:15;;;;;;;;;;;;;;;22.39;34.17;98686.73;68292;1283;1015681;-64
2024/03/22 14:58:19;;;;;;;;;;;;;;;22.17;33.37;98686.34;68277;1283;1015930;-62
2024/03/22 15:01:22;;;;;;;;;;;;;;;21.79;33.94;98681.83;68291;1283;1014756;-63
2024/03/22 15:04:28;;;;;;;;;;;;;;;21.79;34.13;98676.30;68281;1283;1016155;-62
2024/03/22 15:07:33;;;;;;;;;;;;;;;21.79;33.85;98679.29;68296;1283;1015403;-65
2024/03/22 15:10:39;;;;;;;;;;;;;;;21.31;35.09;98671.88;68280;1283;1016079;-62
2024/03/22 15:13:44;;;;;;;;;;;;;;;21.32;34.92;98674.31;68287;1283;1015812;-63
2024/03/22 15:16:48;;;;;;;;;;;;;;;21.23;35.28;98676.27;68286;1283;1015971;-63
2024/03/22 15:19:52;;;;;;;;;;;;;;;21.19;35.66;98676.56;68284;1283;1015930;-68
2024/03/22 15:22:56;;;;;;;;;;;;;;;21.29;35.45;98673.67;68281;1283;1015761;-68
2024/03/22 15:26:01;;;;;;;;;;;;;;;21.19;35.39;98672.43;68285;1283;1016249;-62
2024/03/22 15:29:05;;;;;;;;;;;;;;;20.91;35.83;98669.73;68281;1283;1016274;-62
2024/03/22 15:32:11;;;;;;;;;;;;;;;21.08;35.59;98663.98;68277;1283;1016141;-63
2024/03/22 15:35:14;;;;;;;;;;;;;;;21.28;35.60;98660.44;68283;1283;1015536;-63